Hot Springs Natl Park, Arkansas
Current Conditions -  °F | °C
As of 12:53 AM on Sunday 26 Oct 2014 (Local Time) from KHOT Reporting Station
Haze Haze  
Wind Chill: 64°   Ceiling: Unl
Heat Index: 64°   Visibility: 5mi
Dew Point: 62°   Wind: 3mph
Humidity: 93%   Direction: 310°NW
Pressure: 30.04"   Gusts: NA
Location:  34.5°N, 93.05°W
Report Text: KHOT 260553Z AUTO 31003KT 5SM BR CLR 18/17 A3004 RMK AO2 SLP165 T01780167 10233 20172 402890128 58007
Loading
Personal Weather Stations






























Interactive Weather Map
Tropical Storm Tracking
New forecast layout! Learn more

10-Day Weather Forecast

Advertisements
Track Severe Weather on mobile